createdAt,value
2018-02-06T00:02:04.278Z,102186.81
2018-02-06T00:04:33.081Z,102187.14
2018-02-06T00:07:02.334Z,102187.80
2018-02-06T00:09:30.943Z,102183.46
2018-02-06T00:11:59.582Z,102187.27
2018-02-06T00:14:28.286Z,102187.47
2018-02-06T00:16:56.937Z,102181.19
2018-02-06T00:19:25.790Z,102181.41
2018-02-06T00:21:54.554Z,102183.36
2018-02-06T00:24:23.265Z,102187.02
2018-02-06T00:26:52.118Z,102177.88
2018-02-06T00:29:21.021Z,102176.58
2018-02-06T00:31:49.834Z,102190.17
2018-02-06T00:34:18.468Z,102185.55
2018-02-06T00:36:47.005Z,102187.69
2018-02-06T00:39:15.742Z,102186.06
2018-02-06T00:41:44.574Z,102187.83
2018-02-06T00:44:13.401Z,102182.00
2018-02-06T00:46:42.049Z,102178.68
2018-02-06T00:49:10.862Z,102178.39
2018-02-06T00:51:39.802Z,102178.61
2018-02-06T00:54:08.580Z,102176.20
2018-02-06T00:56:37.326Z,102177.93
2018-02-06T00:59:05.955Z,102168.66
2018-02-06T01:01:34.677Z,102165.69
2018-02-06T01:04:03.642Z,102161.67
2018-02-06T01:06:32.402Z,102171.97
2018-02-06T01:09:01.316Z,102176.46
2018-02-06T01:11:30.470Z,102167.91
2018-02-06T01:13:59.255Z,102161.63
2018-02-06T01:16:28.238Z,102165.25
2018-02-06T01:18:56.979Z,102166.13
2018-02-06T01:21:26.483Z,102162.29
2018-02-06T01:23:55.108Z,102156.80
2018-02-06T01:26:23.950Z,102147.34
2018-02-06T01:28:52.580Z,102147.61
2018-02-06T01:31:21.338Z,102147.06
2018-02-06T01:33:49.911Z,102152.36
2018-02-06T01:36:18.846Z,102155.16
2018-02-06T01:38:47.318Z,102155.75
2018-02-06T01:41:15.946Z,102152.09
2018-02-06T01:43:44.622Z,102146.74
2018-02-06T01:46:13.467Z,102139.20
2018-02-06T01:48:42.464Z,102147.80
2018-02-06T01:51:11.118Z,102149.48
2018-02-06T01:53:39.883Z,102153.23
2018-02-06T01:56:09.055Z,102153.90
2018-02-06T01:58:37.801Z,102149.52
2018-02-06T02:01:06.528Z,102155.98
2018-02-06T02:03:35.158Z,102152.41
2018-02-06T02:06:03.882Z,102154.60
2018-02-06T02:08:32.404Z,102154.92
2018-02-06T02:11:01.121Z,102152.09
2018-02-06T02:13:30.054Z,102157.16
2018-02-06T02:15:58.738Z,102154.38
2018-02-06T02:18:27.430Z,102147.05
2018-02-06T02:20:55.893Z,102143.27
2018-02-06T02:23:24.582Z,102146.05
2018-02-06T02:25:53.198Z,102143.17
2018-02-06T02:28:21.934Z,102140.38
2018-02-06T02:30:50.811Z,102142.53
2018-02-06T02:33:19.503Z,102142.52
2018-02-06T02:35:48.255Z,102143.95
2018-02-06T02:38:17.314Z,102140.92
2018-02-06T02:40:46.558Z,102138.27
2018-02-06T04:39:48.444Z,102173.13
2018-02-06T04:42:17.181Z,102176.28
2018-02-06T04:44:45.613Z,102179.27
2018-02-06T04:47:14.297Z,102184.27
2018-02-06T04:49:43.013Z,102182.86
2018-02-06T04:52:12.022Z,102182.41
2018-02-06T04:54:40.778Z,102191.19
2018-02-06T04:57:09.647Z,102193.66
2018-02-06T04:59:38.494Z,102194.03
2018-02-06T05:02:07.361Z,102194.67
2018-02-06T05:04:36.104Z,102195.91
2018-02-06T05:07:05.198Z,102198.29
2018-02-06T05:09:34.002Z,102204.97
2018-02-06T05:12:03.014Z,102207.94
2018-02-06T05:14:31.882Z,102210.00
2018-02-06T05:17:00.782Z,102211.60
2018-02-06T05:19:29.538Z,102215.35
2018-02-06T05:21:58.183Z,102220.50
2018-02-06T05:24:26.938Z,102221.45
2018-02-06T05:26:55.766Z,102223.92
2018-02-06T05:29:24.603Z,102223.88
2018-02-06T05:31:53.558Z,102224.20
2018-02-06T05:34:22.145Z,102228.14
2018-02-06T05:36:50.738Z,102233.00
2018-02-06T05:39:19.446Z,102235.73
2018-02-06T05:41:48.450Z,102233.80
2018-02-06T05:44:17.377Z,102236.61
2018-02-06T05:46:46.090Z,102243.06
2018-02-06T05:49:15.019Z,102247.00
2018-02-06T05:51:44.116Z,102247.77
2018-02-06T05:54:12.881Z,102250.39
2018-02-06T05:56:41.385Z,102250.26
2018-02-06T05:59:10.046Z,102254.30
2018-02-06T06:01:38.982Z,102259.34
2018-02-06T06:04:07.608Z,102264.83
2018-02-06T06:06:36.413Z,102264.64
2018-02-06T06:09:05.464Z,102268.00
2018-02-06T06:11:34.107Z,102261.97
2018-02-06T06:14:03.106Z,102266.61
2018-02-06T06:16:32.061Z,102267.08
2018-02-06T06:19:01.087Z,102258.13
2018-02-06T06:21:30.099Z,102245.05
2018-02-06T06:23:59.102Z,102242.54
2018-02-06T06:26:28.049Z,102238.00
2018-02-06T06:28:56.733Z,102238.59
2018-02-06T06:31:25.768Z,102244.73
2018-02-06T06:33:54.642Z,102252.73
2018-02-06T06:36:23.369Z,102267.80
2018-02-06T06:38:52.398Z,102273.84
2018-02-06T06:41:21.146Z,102284.14
2018-02-06T06:43:50.138Z,102282.30
2018-02-06T06:46:19.006Z,102285.48
2018-02-06T06:48:47.752Z,102288.20
2018-02-06T06:51:16.690Z,102282.54
2018-02-06T06:53:45.470Z,102293.06
2018-02-06T06:56:14.258Z,102290.87
2018-02-06T06:58:42.972Z,102285.36
2018-02-06T07:01:11.986Z,102281.51
2018-02-06T07:03:41.171Z,102277.78
2018-02-06T07:06:09.957Z,102277.02
2018-02-06T07:08:38.593Z,102274.02
2018-02-06T07:11:07.532Z,102261.63
2018-02-06T07:13:36.425Z,102267.91
2018-02-06T07:16:05.177Z,102269.92
2018-02-06T07:18:34.591Z,102272.81
2018-02-06T07:21:03.389Z,102265.03
2018-02-06T07:23:32.466Z,102274.73
2018-02-06T07:26:01.635Z,102275.43
2018-02-06T07:28:30.584Z,102271.97
2018-02-06T07:30:59.130Z,102276.52
2018-02-06T07:33:27.833Z,102276.34
2018-02-06T07:35:56.522Z,102271.94
2018-02-06T07:38:25.394Z,102271.34
2018-02-06T07:40:53.853Z,102266.84
2018-02-06T07:43:22.706Z,102261.38
2018-02-06T07:45:51.353Z,102264.84
2018-02-06T07:48:20.143Z,102268.22
2018-02-06T07:50:49.136Z,102271.56
2018-02-06T07:53:18.036Z,102276.16
2018-02-06T07:55:46.713Z,102284.14
2018-02-06T07:58:15.488Z,102286.58
2018-02-06T08:00:43.970Z,102280.73
2018-02-06T08:03:12.805Z,102289.64
2018-02-06T08:05:41.305Z,102288.98
2018-02-06T08:08:10.063Z,102281.42
2018-02-06T08:10:38.465Z,102284.50
2018-02-06T08:13:07.362Z,102282.13
2018-02-06T08:15:37.110Z,102280.08
2018-02-06T08:18:06.006Z,102285.05
2018-02-06T08:20:35.063Z,102289.55
2018-02-06T08:23:03.461Z,102276.81
2018-02-06T08:25:32.309Z,102265.39
2018-02-06T08:28:00.997Z,102263.34
2018-02-06T08:30:29.734Z,102256.32
2018-02-06T08:32:58.905Z,102249.75
2018-02-06T08:35:27.765Z,102249.73
2018-02-06T08:37:57.040Z,102250.61
2018-02-06T08:40:25.622Z,102254.16
2018-02-06T08:42:54.311Z,102254.95
2018-02-06T08:45:23.452Z,102247.99
2018-02-06T08:47:52.023Z,102258.69
2018-02-06T08:50:20.946Z,102261.11
2018-02-06T08:52:50.130Z,102269.30
2018-02-06T08:55:19.164Z,102270.84
2018-02-06T08:57:47.914Z,102281.97
2018-02-06T09:00:16.642Z,102282.84
2018-02-06T09:02:45.061Z,102278.03
2018-02-06T09:05:13.749Z,102274.44
2018-02-06T09:07:42.778Z,102276.84
2018-02-06T09:10:11.477Z,102278.83
2018-02-06T09:12:40.128Z,102284.67
2018-02-06T09:15:09.228Z,102284.59
2018-02-06T09:17:37.662Z,102282.59
2018-02-06T09:20:06.755Z,102281.47
2018-02-06T09:22:35.648Z,102274.09
2018-02-06T09:25:04.633Z,102275.80
2018-02-06T09:27:33.394Z,102272.77
2018-02-06T09:30:02.373Z,102281.16
2018-02-06T09:32:31.317Z,102274.45
2018-02-06T09:35:00.306Z,102272.95
2018-02-06T09:37:29.338Z,102271.30
2018-02-06T09:39:58.089Z,102273.94
2018-02-06T09:42:26.882Z,102267.91
2018-02-06T09:44:55.289Z,102266.77
2018-02-06T09:47:23.784Z,102261.41
2018-02-06T09:49:52.689Z,102258.77
2018-02-06T09:52:21.819Z,102263.30
2018-02-06T09:54:50.441Z,102249.22
2018-02-06T09:57:19.497Z,102248.77
2018-02-06T09:59:48.239Z,102245.60
2018-02-06T10:02:16.781Z,102245.80
2018-02-06T10:04:45.379Z,102234.45
2018-02-06T10:07:14.022Z,102233.77
2018-02-06T10:09:42.566Z,102224.03
2018-02-06T10:12:11.534Z,102226.66
2018-02-06T10:14:40.042Z,102225.98
2018-02-06T10:17:08.827Z,102229.34
2018-02-06T10:19:37.589Z,102223.63
2018-02-06T10:22:06.355Z,102223.45
2018-02-06T10:24:34.966Z,102214.92
2018-02-06T10:27:04.034Z,102218.67
2018-02-06T10:29:32.486Z,102219.17
2018-02-06T10:32:01.313Z,102211.75
2018-02-06T10:34:29.888Z,102213.30
2018-02-06T10:36:58.622Z,102207.95
2018-02-06T10:39:27.196Z,102201.12
2018-02-06T10:41:55.821Z,102198.73
2018-02-06T10:44:24.334Z,102199.28
2018-02-06T10:46:52.928Z,102202.48
2018-02-06T10:49:21.740Z,102202.85
2018-02-06T10:51:50.554Z,102195.23
2018-02-06T10:54:19.304Z,102204.92
2018-02-06T10:56:47.733Z,102198.48
2018-02-06T10:59:16.407Z,102194.91
2018-02-06T11:01:45.147Z,102199.49
2018-02-06T11:04:13.840Z,102191.23
2018-02-06T11:06:42.589Z,102181.12
2018-02-06T11:09:11.144Z,102184.91
2018-02-06T11:11:40.166Z,102179.17
2018-02-06T11:14:08.882Z,102180.58
2018-02-06T11:16:37.519Z,102175.97
2018-02-06T11:19:06.105Z,102172.37
2018-02-06T11:21:34.907Z,102171.63
2018-02-06T11:24:03.714Z,102159.19
2018-02-06T11:26:32.445Z,102167.92
2018-02-06T11:29:01.327Z,102153.22
2018-02-06T11:31:29.969Z,102156.30
2018-02-06T11:33:58.782Z,102153.50
2018-02-06T11:36:28.376Z,102153.62
2018-02-06T11:38:56.991Z,102153.92
2018-02-06T11:41:25.537Z,102149.84
2018-02-06T11:43:54.028Z,102152.13
2018-02-06T11:46:23.579Z,102140.87
2018-02-06T11:48:52.100Z,102141.06
2018-02-06T11:51:20.636Z,102146.67
2018-02-06T11:53:49.424Z,102143.66
2018-02-06T11:56:18.273Z,102143.59
2018-02-06T11:58:47.042Z,102138.11
2018-02-06T12:01:16.553Z,102146.00
2018-02-06T12:03:45.493Z,102141.11
2018-02-06T12:06:14.104Z,102137.68
2018-02-06T12:08:42.704Z,102138.00
2018-02-06T12:11:11.325Z,102139.09
2018-02-06T12:13:39.907Z,102143.27
2018-02-06T12:16:09.269Z,102147.70
2018-02-06T12:18:38.066Z,102148.89
2018-02-06T12:21:06.899Z,102153.12
2018-02-06T12:23:35.822Z,102150.16
2018-02-06T12:26:04.525Z,102146.89
2018-02-06T12:28:32.924Z,102144.66
2018-02-06T12:31:01.810Z,102139.98
2018-02-06T12:33:30.594Z,102144.37
2018-02-06T12:35:59.714Z,102140.75
2018-02-06T12:38:28.674Z,102147.12
2018-02-06T12:40:57.559Z,102143.95
2018-02-06T12:43:26.378Z,102140.31
2018-02-06T12:45:55.705Z,102148.27
2018-02-06T12:48:24.551Z,102145.24
2018-02-06T12:50:53.689Z,102143.89
2018-02-06T12:53:22.609Z,102142.22
2018-02-06T12:55:51.426Z,102147.44
2018-02-06T12:58:20.351Z,102150.14
2018-02-06T13:00:49.192Z,102149.23
2018-02-06T13:03:17.764Z,102153.71
2018-02-06T13:05:46.709Z,102153.64
2018-02-06T13:08:15.502Z,102156.05
2018-02-06T13:10:44.452Z,102162.00
2018-02-06T13:13:13.327Z,102163.75
2018-02-06T13:15:41.949Z,102159.05
2018-02-06T13:18:10.720Z,102152.09
2018-02-06T13:20:39.699Z,102157.57
2018-02-06T13:23:08.550Z,102158.95
2018-02-06T13:25:37.728Z,102160.16
2018-02-06T13:28:06.264Z,102158.45
2018-02-06T13:30:35.177Z,102154.86
2018-02-06T13:33:04.094Z,102151.60
2018-02-06T13:35:32.936Z,102147.77
2018-02-06T13:38:02.002Z,102150.38
2018-02-06T13:40:30.821Z,102145.67
2018-02-06T13:42:59.927Z,102145.20
2018-02-06T13:45:33.891Z,102142.83
2018-02-06T13:48:03.341Z,102134.38
2018-02-06T13:50:32.888Z,102130.86
2018-02-06T13:53:02.243Z,102134.33
2018-02-06T13:55:31.566Z,102140.16
2018-02-06T13:58:06.293Z,102138.27
2018-02-06T14:00:36.118Z,102136.95
2018-02-06T14:03:05.141Z,102142.84
2018-02-06T14:05:34.513Z,102151.55
2018-02-06T14:08:04.060Z,102153.38
2018-02-06T14:10:33.205Z,102147.39
2018-02-06T14:13:02.329Z,102155.33
2018-02-06T14:15:32.160Z,102155.12
2018-02-06T14:18:02.282Z,102144.22
2018-02-06T14:20:31.923Z,102153.67
2018-02-06T14:23:01.702Z,102160.78
2018-02-06T14:25:31.032Z,102165.47
2018-02-06T14:28:00.737Z,102157.58
2018-02-06T14:30:30.061Z,102163.08
2018-02-06T14:32:59.306Z,102164.28
2018-02-06T14:35:28.633Z,102163.78
2018-02-06T14:37:58.205Z,102168.14
2018-02-06T14:40:27.577Z,102170.33
2018-02-06T14:42:57.129Z,102174.22
2018-02-06T14:45:26.513Z,102174.53
2018-02-06T14:47:55.986Z,102171.70
2018-02-06T14:50:25.817Z,102172.69
2018-02-06T14:52:55.116Z,102175.86
2018-02-06T14:55:24.685Z,102171.47
2018-02-06T14:57:53.789Z,102173.73
2018-02-06T15:00:22.966Z,102169.15
2018-02-06T15:02:52.325Z,102174.02
2018-02-06T15:05:21.693Z,102180.80
2018-02-06T15:07:50.953Z,102178.78
2018-02-06T15:10:20.254Z,102185.73
2018-02-06T15:12:49.602Z,102186.44
2018-02-06T15:15:18.825Z,102189.79
2018-02-06T15:17:48.464Z,102184.72
2018-02-06T15:20:17.599Z,102186.08
2018-02-06T15:22:46.925Z,102192.89
2018-02-06T15:25:16.156Z,102191.62
2018-02-06T15:27:45.405Z,102196.14
2018-02-06T15:30:14.636Z,102203.63
2018-02-06T15:32:44.160Z,102201.91
2018-02-06T15:35:13.611Z,102209.11
2018-02-06T15:37:43.650Z,102209.96
2018-02-06T15:40:13.238Z,102200.72
2018-02-06T15:42:42.538Z,102203.30
2018-02-06T15:45:12.213Z,102213.67
2018-02-06T15:47:42.742Z,102210.17
2018-02-06T15:50:12.146Z,102210.42
2018-02-06T15:52:41.324Z,102212.70
2018-02-06T15:55:11.082Z,102216.29
2018-02-06T15:57:40.120Z,102223.18
2018-02-06T16:00:09.305Z,102223.28
2018-02-06T16:02:38.734Z,102230.61
2018-02-06T16:05:08.321Z,102233.37
2018-02-06T16:07:37.851Z,102226.67
2018-02-06T16:10:06.922Z,102229.42
2018-02-06T16:12:36.013Z,102225.97
2018-02-06T16:15:06.159Z,102225.38
2018-02-06T16:17:35.709Z,102239.48
2018-02-06T16:20:04.986Z,102244.19
2018-02-06T16:22:34.222Z,102243.37
2018-02-06T16:25:03.613Z,102239.78
2018-02-06T16:27:32.944Z,102237.27
2018-02-06T16:30:02.273Z,102251.12
2018-02-06T16:32:31.652Z,102253.78
2018-02-06T16:35:00.629Z,102253.86
2018-02-06T16:37:30.047Z,102261.86
2018-02-06T16:39:59.167Z,102259.71
2018-02-06T16:42:28.363Z,102259.23
2018-02-06T16:44:57.666Z,102265.06
2018-02-06T16:47:27.074Z,102266.25
2018-02-06T16:49:56.069Z,102266.53
2018-02-06T16:52:25.048Z,102268.43
2018-02-06T16:54:54.393Z,102272.06
2018-02-06T16:57:23.750Z,102274.61
2018-02-06T16:59:52.960Z,102271.50
2018-02-06T17:02:33.438Z,102274.13
2018-02-06T17:05:02.274Z,102274.08
2018-02-06T17:07:31.624Z,102274.31
2018-02-06T17:10:00.927Z,102279.80
2018-02-06T17:12:30.353Z,102275.37
2018-02-06T17:14:59.581Z,102270.33
2018-02-06T17:17:28.754Z,102271.77
2018-02-06T17:19:58.038Z,102278.89
2018-02-06T17:22:27.158Z,102280.95
2018-02-06T17:24:56.506Z,102289.86
2018-02-06T17:27:25.608Z,102288.40
2018-02-06T17:29:54.689Z,102285.25
2018-02-06T17:32:24.131Z,102280.83
2018-02-06T17:34:53.403Z,102283.19
2018-02-06T17:37:22.563Z,102285.34
2018-02-06T17:39:51.882Z,102281.39
2018-02-06T17:42:21.204Z,102285.41
2018-02-06T17:44:50.347Z,102286.37
2018-02-06T17:47:19.559Z,102289.66
2018-02-06T17:49:48.804Z,102290.12
2018-02-06T17:52:18.041Z,102295.11
2018-02-06T17:54:47.381Z,102301.37
2018-02-06T17:57:16.696Z,102295.05
2018-02-06T17:59:45.950Z,102294.63
2018-02-06T18:02:15.004Z,102299.47
2018-02-06T18:04:44.410Z,102299.46
2018-02-06T18:07:13.618Z,102301.53
2018-02-06T18:09:42.909Z,102308.68
2018-02-06T18:12:12.034Z,102305.73
2018-02-06T18:14:41.326Z,102304.30
2018-02-06T18:17:11.670Z,102306.38
2018-02-06T18:19:41.067Z,102310.03
2018-02-06T18:22:10.170Z,102307.98
2018-02-06T18:24:39.655Z,102305.09
2018-02-06T18:27:09.213Z,102306.59
2018-02-06T18:29:38.278Z,102298.65
2018-02-06T18:32:07.453Z,102308.30
2018-02-06T18:34:36.822Z,102307.47
2018-02-06T18:37:05.987Z,102312.52
2018-02-06T18:39:35.274Z,102311.67
2018-02-06T18:42:04.742Z,102312.47
2018-02-06T18:44:33.990Z,102309.91
2018-02-06T18:47:03.035Z,102315.59
2018-02-06T18:49:32.851Z,102314.25
2018-02-06T18:52:02.110Z,102316.19
2018-02-06T18:54:31.317Z,102313.20
2018-02-06T18:57:00.525Z,102316.88
2018-02-06T18:59:29.754Z,102304.34
2018-02-06T19:01:59.033Z,102306.28
2018-02-06T19:04:28.033Z,102308.04
2018-02-06T19:06:57.306Z,102312.44
2018-02-06T19:09:26.510Z,102315.27
2018-02-06T19:11:55.830Z,102312.68
2018-02-06T19:14:25.033Z,102317.42
2018-02-06T19:16:54.281Z,102313.31
2018-02-06T19:19:23.506Z,102311.33
2018-02-06T19:21:52.429Z,102310.16
2018-02-06T19:24:21.601Z,102310.94
2018-02-06T19:26:51.237Z,102315.81
2018-02-06T19:29:20.189Z,102313.48
2018-02-06T19:31:49.673Z,102311.20
2018-02-06T19:34:18.769Z,102317.44
2018-02-06T19:36:48.274Z,102324.44
2018-02-06T19:39:17.446Z,102324.06
2018-02-06T19:41:46.918Z,102321.33
2018-02-06T19:44:16.113Z,102318.71
2018-02-06T19:46:45.215Z,102321.86
2018-02-06T19:49:14.433Z,102317.64
2018-02-06T19:51:43.494Z,102309.72
2018-02-06T19:54:12.494Z,102315.43
2018-02-06T19:56:41.656Z,102322.08
2018-02-06T19:59:10.794Z,102318.77
2018-02-06T20:01:40.022Z,102324.75
2018-02-06T20:04:09.181Z,102332.11
2018-02-06T20:06:38.173Z,102333.09
2018-02-06T20:09:07.263Z,102340.89
2018-02-06T20:11:37.300Z,102338.44
2018-02-06T20:14:06.565Z,102341.91
2018-02-06T20:16:36.115Z,102338.56
2018-02-06T20:19:05.153Z,102341.19
2018-02-06T20:21:34.283Z,102338.27
2018-02-06T20:24:03.912Z,102341.75
2018-02-06T20:26:33.146Z,102342.11
2018-02-06T20:29:02.402Z,102342.03
2018-02-06T20:31:31.498Z,102340.31
2018-02-06T20:34:00.734Z,102332.31
2018-02-06T20:36:29.657Z,102333.66
2018-02-06T20:38:59.090Z,102335.16
2018-02-06T20:41:28.610Z,102331.95
2018-02-06T20:43:58.126Z,102328.50
2018-02-06T20:46:27.329Z,102321.20
2018-02-06T20:48:56.441Z,102320.80
2018-02-06T20:51:25.919Z,102316.73
2018-02-06T20:53:55.309Z,102315.39
2018-02-06T20:56:24.639Z,102311.77
2018-02-06T20:58:53.605Z,102311.19
2018-02-06T21:01:23.704Z,102315.92
2018-02-06T21:03:52.777Z,102320.89
2018-02-06T21:06:22.026Z,102312.64
2018-02-06T21:08:51.509Z,102319.47
2018-02-06T21:11:20.634Z,102316.09
2018-02-06T21:13:49.513Z,102324.41
2018-02-06T21:16:18.649Z,102327.87
2018-02-06T21:18:48.586Z,102331.31
2018-02-06T21:21:17.753Z,102335.11
2018-02-06T21:23:46.834Z,102331.64
2018-02-06T21:26:16.909Z,102325.42
2018-02-06T21:30:54.238Z,102326.00
2018-02-06T21:33:23.085Z,102324.77
2018-02-06T21:35:52.878Z,102327.38
2018-02-06T21:38:22.135Z,102325.92
2018-02-06T21:40:49.842Z,102320.23
2018-02-06T21:43:16.999Z,102327.17
2018-02-06T21:45:44.323Z,102335.45
2018-02-06T21:48:11.523Z,102333.73
2018-02-06T21:50:38.806Z,102339.78
2018-02-06T21:53:05.954Z,102337.41
2018-02-06T21:55:33.067Z,102342.51
2018-02-06T21:58:00.112Z,102337.56
2018-02-06T22:00:27.566Z,102338.92
2018-02-06T22:02:54.637Z,102348.76
2018-02-06T22:05:21.979Z,102351.80
2018-02-06T22:07:48.837Z,102348.41
2018-02-06T22:10:15.835Z,102349.67
2018-02-06T22:12:43.072Z,102349.09
2018-02-06T22:15:10.418Z,102345.81
2018-02-06T22:17:37.534Z,102341.98
2018-02-06T22:20:04.522Z,102341.98
2018-02-06T22:22:31.586Z,102342.77
2018-02-06T22:24:59.180Z,102348.64
2018-02-06T22:27:26.514Z,102344.04
2018-02-06T22:29:53.635Z,102344.16
2018-02-06T22:32:20.706Z,102347.40
2018-02-06T22:34:47.843Z,102347.41
2018-02-06T22:37:15.078Z,102348.65
2018-02-06T22:39:42.001Z,102349.00
2018-02-06T22:42:08.889Z,102350.70
2018-02-06T22:44:36.093Z,102341.67
2018-02-06T22:47:03.026Z,102340.21
2018-02-06T22:49:29.829Z,102338.84
2018-02-06T22:51:56.621Z,102338.95
2018-02-06T22:54:23.866Z,102335.69
2018-02-06T22:56:50.739Z,102341.23
2018-02-06T22:59:17.795Z,102346.95
2018-02-06T23:01:44.818Z,102340.31
2018-02-06T23:04:12.115Z,102331.38
2018-02-06T23:06:39.026Z,102330.22
2018-02-06T23:09:06.545Z,102328.86
2018-02-06T23:11:33.666Z,102340.39
2018-02-06T23:14:00.899Z,102338.48
2018-02-06T23:16:28.162Z,102336.95
2018-02-06T23:18:55.062Z,102332.31
2018-02-06T23:21:22.548Z,102329.38
2018-02-06T23:23:50.940Z,102331.50
2018-02-06T23:26:18.254Z,102334.87
2018-02-06T23:28:45.649Z,102347.76
2018-02-06T23:31:12.895Z,102340.51
2018-02-06T23:33:39.861Z,102335.45
2018-02-06T23:36:06.935Z,102333.41
2018-02-06T23:38:34.230Z,102327.53
2018-02-06T23:41:01.398Z,102328.34
2018-02-06T23:43:28.852Z,102334.33
2018-02-06T23:45:55.917Z,102331.40
2018-02-06T23:48:23.119Z,102320.97
2018-02-06T23:50:50.757Z,102330.49
2018-02-06T23:53:18.325Z,102315.08
2018-02-06T23:55:45.434Z,102323.86
2018-02-06T23:58:12.483Z,102337.39
